METAR Data
IDs: Format: Raw Decoded Include TAF

Data at: 1734 UTC 21 Sep 2018

KGDJ 211715Z AUTO 16009KT 10SM SCT023 SCT030 OVC041 29/23 A2997 RMK AO2 T02910230
KGDJ 211655Z AUTO 15009KT 10SM SCT018 SCT026 OVC041 29/23 A2997 RMK AO2 T02850231
KGDJ 211635Z AUTO 15010KT 10SM BKN020 BKN028 OVC039 28/23 A2998 RMK AO2 T02810231
KGDJ 211615Z AUTO 16010KT 10SM BKN018 BKN023 OVC033 28/23 A2998 RMK AO2 T02770231
KGDJ 211555Z AUTO 15009KT 10SM BKN017 OVC022 28/23 A2998 RMK AO2 T02760233
KGDJ 211535Z AUTO 14010KT 10SM BKN016 BKN022 OVC029 27/23 A2997 RMK AO2 T02730232
KGDJ 211515Z AUTO 14011KT 10SM BKN015 OVC020 27/24 A2997 RMK AO2 T02740236
KGDJ 211455Z AUTO 15009KT 10SM BKN012 OVC020 27/24 A2997 RMK AO2 T02710237
KGDJ 211435Z AUTO 13008KT 10SM BKN010 BKN110 27/24 A2996 RMK AO2 T02650238
KGDJ 211415Z AUTO 14009KT 10SM OVC010 26/24 A2996 RMK AO2 T02580236
KGDJ 211355Z AUTO 14007KT 10SM OVC012 26/24 A2996 RMK AO2 T02550235
KGDJ 211335Z AUTO 13008KT 10SM SCT009 OVC015 25/24 A2995 RMK AO2 T02520235
KGDJ 211315Z AUTO 13007KT 10SM SCT007 BKN012 OVC017 25/23 A2995 RMK AO2 T02500233
KGDJ 211255Z AUTO 13007KT 10SM SCT007 BKN013 OVC110 25/23 A2995 RMK AO2 T02480231
KGDJ 211235Z AUTO 13008KT 7SM DZ SCT007 BKN013 OVC018 25/23 A2994 RMK AO2 T02470230
KGDJ 211215Z AUTO 12007KT 10SM SCT006 BKN017 OVC024 25/23 A2994 RMK AO2 T02470229
KGDJ 211155Z AUTO 12007KT 10SM SCT006 OVC025 25/23 A2994 RMK AO2 70001 T02460227 10246 20233
KGDJ 211135Z AUTO 12007KT 10SM SCT006 SCT016 OVC027 25/23 A2994 RMK AO2 T02460227
KGDJ 211115Z AUTO 12006KT 10SM SCT016 OVC026 25/23 A2994 RMK AO2 T02450226
KGDJ 211055Z AUTO 12005KT 10SM SCT008 SCT012 OVC028 25/23 A2994 RMK AO2 T02450225
KGDJ 211035Z AUTO 12006KT 10SM OVC012 24/22 A2994 RMK AO2 T02430224
KGDJ 211015Z AUTO 13006KT 10SM OVC010 24/22 A2994 RMK AO2 T02430223
KGDJ 210955Z AUTO 12006KT 10SM OVC008 24/22 A2994 RMK AO2 T02410221
KGDJ 210935Z AUTO 12006KT 10SM OVC008 24/22 A2994 RMK AO2 T02400220
KGDJ 210915Z AUTO 12006KT 10SM OVC008 24/22 A2994 RMK AO2 T02400219
KGDJ 210855Z AUTO 12006KT 10SM OVC008 24/22 A2994 RMK AO2 T02400217
KGDJ 210835Z AUTO 12007KT 10SM OVC008 24/22 A2993 RMK AO2 T02380215
KGDJ 210815Z AUTO 13005KT 10SM OVC008 24/22 A2994 RMK AO2 T02370215
KGDJ 210755Z AUTO 13007KT 10SM OVC010 24/22 A2993 RMK AO2 T02370215
KGDJ 210735Z AUTO 13008KT 10SM OVC010 24/22 A2993 RMK AO2 T02360215
KGDJ 210715Z AUTO 13006KT 10SM OVC010 24/21 A2994 RMK AO2 T02350213
KGDJ 210655Z AUTO 13006KT 10SM OVC012 24/21 A2994 RMK AO2 T02350212
KGDJ 210635Z AUTO 12007KT 10SM OVC012 23/21 A2995 RMK AO2 T02330211
KGDJ 210615Z AUTO 12006KT 10SM BKN014 OVC037 23/21 A2995 RMK AO2 T02330211
KGDJ 210555Z AUTO 12007KT 10SM SCT037 SCT045 OVC065 23/21 A2996 RMK AO2 T02330210 10260 20233 403350233
KGDJ 210535Z AUTO 11008KT 10SM SCT045 OVC070 24/21 A2996 RMK AO2 T02360208
KGDJ 210515Z AUTO 11008KT 10SM SCT060 OVC080 24/21 A2996 RMK AO2 T02420207
KGDJ 210455Z AUTO 15007KT 10SM SCT060 BKN080 24/21 A2996 RMK AO2 T02420206
KGDJ 210435Z AUTO 14006KT 10SM SCT070 SCT110 24/21 A2996 RMK AO2 T02410205
KGDJ 210415Z AUTO 15008KT 10SM BKN110 24/21 A2996 RMK AO2 T02420206
KGDJ 210355Z AUTO 14006KT 10SM OVC100 24/21 A2996 RMK AO2 T02430205
KGDJ 210335Z AUTO 13008KT 10SM OVC100 24/21 A2996 RMK AO2 T02420206
KGDJ 210315Z AUTO 14008KT 10SM OVC100 24/21 A2997 RMK AO2 T02430207
KGDJ 210255Z AUTO 14006KT 10SM OVC110 25/21 A2997 RMK AO2 T02450205
KGDJ 210235Z AUTO 15008G16KT 10SM BKN110 25/21 A2996 RMK AO2 T02460205
KGDJ 210215Z AUTO 15015KT 10SM SCT120 25/21 A2995 RMK AO2 T02510207
KGDJ 210155Z AUTO 13009G16KT 10SM -DZ SCT030 SCT085 SCT100 25/22 A2995 RMK AO2 T02530215
KGDJ 210135Z AUTO 13009KT 10SM -RA SCT030 SCT075 SCT090 26/22 A2994 RMK AO2 T02560215
KGDJ 210115Z AUTO 14006KT 10SM SCT100 SCT120 26/21 A2992 RMK AO2 T02600211
KGDJ 210055Z AUTO 14007KT 10SM CLR 26/22 A2991 RMK AO2 T02600217
KGDJ 210035Z AUTO 13007KT 10SM CLR 26/22 A2991 RMK AO2 LTG DSNT NE T02570220
KGDJ 210015Z AUTO 14005KT 10SM CLR 26/22 A2990 RMK AO2 T02550217
KGDJ 202355Z AUTO 16006KT 10SM SCT100 SCT120 25/22 A2991 RMK AO2 60001 T02530216 10335 20235
KGDJ 202335Z AUTO 15006KT 10SM SCT044 26/22 A2991 RMK AO2 T02550216
KGDJ 202315Z AUTO 13004KT 10SM SCT120 25/22 A2991 RMK AO2 T02510216
KGDJ 202255Z AUTO 15005KT 10SM CLR 25/22 A2992 RMK AO2 LTG DSNT E T02470217
KGDJ 202235Z AUTO 12004KT 10SM CLR 24/22 A2991 RMK AO2 LTG DSNT NE T02410216
KGDJ 202215Z AUTO 13007KT 10SM -VCTSRA SCT041 SCT055 BKN095 24/21 A2992 RMK AO2 LTG DSNT NE T02360210
KGDJ 202155Z AUTO 13010KT 10SM -RA SCT070 BKN100 OVC120 24/20 A2992 RMK AO2 LTG DSNT N SE AND NW P0001 T02350199
KGDJ 202135Z AUTO 16012G17KT 10SM -TSRA SCT045 SCT070 BKN095 25/19 A2992 RMK AO2 LTG DSNT ALQS T02450188
KGDJ 202115Z AUTO 22022G31KT 10SM VCTS SCT043 SCT070 28/19 A2992 RMK AO2 LTG DSNT ALQS T02810185
KGDJ 202055Z AUTO 14011KT 10SM SCT045 33/21 A2988 RMK AO2 LTG DSNT SE AND S T03260207
KGDJ 202035Z AUTO 14013KT 10SM SCT043 SCT050 BKN080 33/20 A2988 RMK AO2 LTG DSNT SE AND S T03310202
KGDJ 202015Z AUTO 14010KT 10SM SCT043 SCT060 BKN065 32/21 A2989 RMK AO2 LTG DSNT S T03200206
KGDJ 201955Z AUTO 14011KT 10SM SCT043 SCT048 SCT060 33/21 A2990 RMK AO2 LTG DSNT S T03300210
KGDJ 201935Z AUTO 14012G17KT 10SM SCT041 SCT046 SCT050 33/21 A2991 RMK AO2 LTG DSNT NW T03310211
KGDJ 201915Z AUTO 14011G16KT 10SM SCT041 BKN050 BKN065 32/21 A2992 RMK AO2 T03220210
KGDJ 201855Z AUTO 15011KT 10SM SCT041 SCT050 BKN065 33/21 A2993 RMK AO2 T03270213
KGDJ 201835Z AUTO 14008KT 10SM SCT041 BKN050 33/21 A2994 RMK AO2 T03250211
KGDJ 201815Z AUTO 16010G14KT 10SM SCT041 BKN055 BKN065 32/21 A2995 RMK AO2 T03200210
KGDJ 201755Z AUTO 16009KT 10SM BKN039 BKN045 BKN050 32/21 A2995 RMK AO2 T03200210 10326 20235
KGDJ 201735Z AUTO 15009G15KT 10SM SCT039 SCT045 32/21 A2996 RMK AO2 T03220212
KGDJ 201715Z AUTO 18011G15KT 10SM SCT039 32/21 A2997 RMK AO2 T03160212
KGDJ 201655Z AUTO 19009KT 10SM SCT041 32/21 A2998 RMK AO2 T03160214
KGDJ 201635Z AUTO 16010G16KT 10SM CLR 32/21 A2999 RMK AO2 T03150210
KGDJ 201615Z AUTO 16012KT 10SM SCT026 31/21 A2999 RMK AO2 T03070213
KGDJ 201555Z AUTO 17006KT 10SM SCT026 30/22 A2999 RMK AO2 T02950220
KGDJ 201535Z AUTO 18009KT 10SM SCT024 30/22 A2999 RMK AO2 T02980221
KGDJ 201515Z AUTO 16009KT 10SM CLR 29/22 A2999 RMK AO2 T02850220
KGDJ 201455Z AUTO 16009KT 10SM CLR 28/22 A2998 RMK AO2 T02820219
KGDJ 201435Z AUTO 17006KT 10SM CLR 27/22 A2997 RMK AO2 T02740221
KGDJ 201415Z AUTO 13006KT 10SM CLR 26/22 A2997 RMK AO2 T02570219
KGDJ 201355Z AUTO 13006KT 10SM CLR 25/22 A2997 RMK AO2 T02470215
KGDJ 201335Z AUTO 13005KT 10SM CLR 25/21 A2997 RMK AO2 T02450212
KGDJ 201315Z AUTO 13006KT 10SM CLR 25/21 A2997 RMK AO2 T02460212
KGDJ 201255Z AUTO 13005KT 10SM CLR 25/21 A2995 RMK AO2 T02490212
KGDJ 201235Z AUTO 13003KT 10SM CLR 24/21 A2995 RMK AO2 T02430211
KGDJ 201215Z AUTO 13004KT 10SM CLR 24/21 A2994 RMK AO2 T02350207
KGDJ 201155Z AUTO 00000KT 10SM CLR 24/21 A2994 RMK AO2 T02350206 10262 20235
KGDJ 201135Z AUTO 00000KT 10SM CLR 24/21 A2994 RMK AO2 T02360206
KGDJ 201115Z AUTO 15004KT 10SM CLR 24/21 A2994 RMK AO2 T02400208
KGDJ 201055Z AUTO 17004KT 10SM CLR 24/21 A2994 RMK AO2 T02360206
KGDJ 201035Z AUTO 16003KT 10SM CLR 24/21 A2993 RMK AO2 T02410205
KGDJ 201015Z AUTO 00000KT 10SM CLR 24/21 A2993 RMK AO2 T02400205
KGDJ 200955Z AUTO 14004KT 10SM CLR 25/21 A2993 RMK AO2 T02450205
KGDJ 200935Z AUTO 00000KT 10SM CLR 25/20 A2994 RMK AO2 T02450203
KGDJ 200915Z AUTO 15003KT 10SM CLR 25/20 A2993 RMK AO2 T02450203
KGDJ 200855Z AUTO 17004KT 10SM CLR 25/20 A2994 RMK AO2 T02450203
KGDJ 200835Z AUTO 16005KT 10SM CLR 25/21 A2994 RMK AO2 T02450205
KGDJ 200815Z AUTO 00000KT 10SM CLR 24/21 A2995 RMK AO2 T02400205
KGDJ 200755Z AUTO 00000KT 10SM CLR 25/21 A2995 RMK AO2 T02490206
KGDJ 200735Z AUTO 12004KT 10SM CLR 25/21 A2995 RMK AO2 T02510207
KGDJ 200715Z AUTO 11003KT 10SM CLR 26/21 A2995 RMK AO2 T02570205
KGDJ 200655Z AUTO 13004KT 10SM CLR 26/20 A2995 RMK AO2 T02610202
KGDJ 200635Z AUTO 14004KT 10SM CLR 26/20 A2995 RMK AO2 T02560204
KGDJ 200615Z AUTO 17004KT 10SM CLR 26/21 A2995 RMK AO2 T02550205
KGDJ 200555Z AUTO 17005KT 10SM CLR 26/21 A2995 RMK AO2 T02590205 10331 20258 403500229
KGDJ 200535Z AUTO 17005KT 10SM CLR 26/21 A2995 RMK AO2 T02610205